Humidity-temperature Sensor

Selected Measurement Type: Air Temperature

 
Air Temperature [°C]     6 entries per hour
Showing data from 8/1/2020 (00:00:00 Z) to 7/25/2020 (00:01:00 Z)
Previous Next [ Day | 3-Days | 7-Days ]
First Last
Prev [ Day | 3-Days | 7-Days ] Next
First Last

Start Time:     :
End Time:     :     
Time (in GMT) :00 :50 :40 :30 :20 :10
Previous Next [ Day | 3-Days | 7-Days ]
First Last
Prev [ Day | 3-Days | 7-Days ] Next
First Last


123 => good data
MM => data is determined as missing
-- => data not received/configured
Back to Top Back to Top
8/1/2020 00:00 to 23:10 24.70 24.69 24.83 24.62 24.67 24.80
7/31/2020 23:00 to 22:10 24.74 24.80 24.65 24.72 24.68 24.58
7/31/2020 22:00 to 21:10 24.65 24.60 24.58 24.58 24.70 24.76
7/31/2020 21:00 to 20:10 24.66 24.69 24.72 24.77 24.57 24.60
7/31/2020 20:00 to 19:10 24.63 24.76 24.74 24.64 24.69 24.65
7/31/2020 19:00 to 18:10 24.63 24.56 24.53 24.64 24.56 24.64
7/31/2020 18:00 to 17:10 24.58 24.55 24.62 24.81 24.71 24.80
7/31/2020 17:00 to 16:10 24.71 24.69 24.49 24.66 24.78 24.57
7/31/2020 16:00 to 15:10 24.86 24.59 24.64 24.60 24.47 24.70
7/31/2020 15:00 to 14:10 24.31 24.48 24.43 24.59 24.52 24.44
7/31/2020 14:00 to 13:10 24.13 23.85 23.11 22.56 24.18 24.20
7/31/2020 13:00 to 12:10 24.23 24.20 24.26 24.30 24.19 24.13
7/31/2020 12:00 to 11:10 24.12 24.12 23.97 23.98 23.74 23.68
7/31/2020 11:00 to 10:10 24.11 24.25 24.14 24.31 24.17 24.29
7/31/2020 10:00 to 9:10 24.24 24.25 24.19 24.24 24.17 24.14
7/31/2020 09:00 to 8:10 24.23 24.34 24.32 24.31 24.30 24.34
7/31/2020 08:00 to 7:10 24.30 24.34 24.27 24.30 24.27 24.40
7/31/2020 07:00 to 6:10 24.37 24.26 24.38 24.31 24.27 24.50
7/31/2020 06:00 to 5:10 24.51 24.50 24.44 24.28 24.41 24.29
7/31/2020 05:00 to 4:10 24.41 24.36 24.38 24.19 24.41 24.23
7/31/2020 04:00 to 3:10 24.34 24.25 24.13 24.09 24.17 24.21
7/31/2020 03:00 to 2:10 24.27 24.36 24.36 24.31 24.19 24.00
7/31/2020 02:00 to 1:10 24.13 24.10 24.14 24.12 24.20 24.29
7/31/2020 01:00 to 0:10 24.32 24.26 24.36 24.45 24.44 24.26
7/31/2020 00:00 to 23:10 24.38 24.55 24.60 24.53 24.61 24.49
7/30/2020 23:00 to 22:10 24.54 24.44 24.57 24.69 24.56 24.60
7/30/2020 22:00 to 21:10 24.63 24.59 24.57 24.80 24.71 24.56
7/30/2020 21:00 to 20:10 24.69 24.61 24.58 24.53 24.60 24.60
7/30/2020 20:00 to 19:10 24.61 24.68 24.64 24.66 24.65 24.65
7/30/2020 19:00 to 18:10 24.52 24.52 24.62 24.65 24.63 24.54
7/30/2020 18:00 to 17:10 24.60 24.50 24.52 24.53 24.53 24.58
7/30/2020 17:00 to 16:10 24.62 24.50 24.65 24.72 24.81 24.74
7/30/2020 16:00 to 15:10 24.70 24.66 24.56 24.84 24.72 24.68
7/30/2020 15:00 to 14:10 24.65 24.60 24.52 24.56 24.53 24.51
7/30/2020 14:00 to 13:10 24.46 24.45 24.44 24.42 24.27 24.37
7/30/2020 13:00 to 12:10 24.45 24.38 24.38 24.44 24.13 24.06
7/30/2020 12:00 to 11:10 23.95 23.77 23.81 23.67 23.50 23.31
7/30/2020 11:00 to 10:10 23.31 23.17 24.11 24.03 24.01 23.93
7/30/2020 10:00 to 9:10 23.92 24.01 23.78 23.79 23.62 24.03
7/30/2020 09:00 to 8:10 24.23 24.06 23.90 23.72 23.43 23.21
7/30/2020 08:00 to 7:10 23.13 23.46 23.16 22.75 23.31 24.32
7/30/2020 07:00 to 6:10 24.36 24.35 24.44 24.45 24.45 24.49
7/30/2020 06:00 to 5:10 24.25 24.55 24.44 24.43 24.32 24.17
7/30/2020 05:00 to 4:10 24.00 23.80 24.67 24.56 24.56 24.50
7/30/2020 04:00 to 3:10 24.41 24.56 24.39 24.46 24.36 24.52
7/30/2020 03:00 to 2:10 24.42 24.42 24.62 24.45 24.49 24.32
7/30/2020 02:00 to 1:10 24.41 24.38 24.40 24.58 25.00 24.76
7/30/2020 01:00 to 0:10 24.72 24.71 24.79 24.79 24.56 24.84
7/30/2020 00:00 to 23:10 24.67 24.75 24.70 24.65 24.66 24.64
7/29/2020 23:00 to 22:10 24.50 24.75 24.53 24.70 24.83 24.71
7/29/2020 22:00 to 21:10 24.70 24.60 24.70 24.70 24.73 24.71
7/29/2020 21:00 to 20:10 24.68 24.84 24.67 24.75 24.55 24.87
7/29/2020 20:00 to 19:10 24.86 25.05 25.02 24.92 24.70 24.78
7/29/2020 19:00 to 18:10 24.78 24.83 24.93 24.88 24.82 24.89
7/29/2020 18:00 to 17:10 24.64 24.70 24.71 24.72 24.51 24.36
7/29/2020 17:00 to 16:10 24.77 24.68 24.75 24.73 24.58 24.57
7/29/2020 16:00 to 15:10 24.46 24.38 24.14 23.66 23.19 24.20
7/29/2020 15:00 to 14:10 24.31 24.21 24.38 23.54 22.66 22.64
7/29/2020 14:00 to 13:10 23.61 24.54 24.45 24.54 24.64 24.56
7/29/2020 13:00 to 12:10 24.39 24.47 24.45 24.39 24.45 24.35
7/29/2020 12:00 to 11:10 24.22 23.68 23.76 23.77 23.94 24.11
7/29/2020 11:00 to 10:10 24.13 24.06 24.32 24.39 24.33 24.32
7/29/2020 10:00 to 9:10 24.29 23.95 23.84 23.78 23.39 23.04
7/29/2020 09:00 to 8:10 23.17 23.26 24.06 24.46 24.26 24.38
7/29/2020 08:00 to 7:10 24.54 24.39 24.40 24.61 24.65 24.67
7/29/2020 07:00 to 6:10 24.51 24.55 24.53 24.44 24.15 24.61
7/29/2020 06:00 to 5:10 24.58 24.62 24.67 24.66 24.81 24.69
7/29/2020 05:00 to 4:10 24.60 24.69 24.88 24.74 24.72 24.66
7/29/2020 04:00 to 3:10 24.63 24.89 24.86 24.76 24.77 24.67
7/29/2020 03:00 to 2:10 24.56 24.72 24.67 24.59 24.73 24.85
7/29/2020 02:00 to 1:10 24.67 24.76 24.74 24.82 24.80 24.75
7/29/2020 01:00 to 0:10 24.96 24.93 25.07 24.93 24.93 24.91
7/29/2020 00:00 to 23:10 24.79 24.81 24.88 24.95 24.95 24.94
7/28/2020 23:00 to 22:10 24.73 24.93 24.89 25.01 24.92 24.92
7/28/2020 22:00 to 21:10 24.83 24.75 24.85 24.55 24.73 24.60
7/28/2020 21:00 to 20:10 24.29 24.45 24.77 24.85 24.86 24.51
7/28/2020 20:00 to 19:10 24.27 24.00 24.24 25.37 25.00 24.89
7/28/2020 19:00 to 18:10 24.73 24.72 24.80 24.96 24.48 24.38
7/28/2020 18:00 to 17:10 24.36 24.89 24.85 25.11 25.13 24.99
7/28/2020 17:00 to 16:10 24.91 24.76 24.78 24.95 25.00 24.81
7/28/2020 16:00 to 15:10 24.86 24.60 24.80 24.35 24.11 24.12
7/28/2020 15:00 to 14:10 23.80 23.61 24.30 24.62 24.50 24.42
7/28/2020 14:00 to 13:10 24.29 24.47 23.86 24.28 24.34 24.35
7/28/2020 13:00 to 12:10 24.49 24.52 24.35 24.22 24.36 24.05
7/28/2020 12:00 to 11:10 24.28 24.30 24.31 23.69 23.15 23.19
7/28/2020 11:00 to 10:10 24.08 23.78 23.94 23.74 23.73 24.23
7/28/2020 10:00 to 9:10 24.23 24.19 24.17 24.12 24.01 23.68
7/28/2020 09:00 to 8:10 23.65 23.21 23.96 24.02 24.37 24.54
7/28/2020 08:00 to 7:10 24.46 24.32 24.31 24.31 24.40 24.33
7/28/2020 07:00 to 6:10 24.42 24.44 24.49 24.38 24.46 24.47
7/28/2020 06:00 to 5:10 24.48 24.38 24.35 24.32 24.32 24.28
7/28/2020 05:00 to 4:10 24.30 24.25 24.33 24.24 24.18 24.26
7/28/2020 04:00 to 3:10 24.28 24.34 24.39 24.40 24.37 24.36
7/28/2020 03:00 to 2:10 24.37 24.32 24.17 24.23 24.34 24.31
7/28/2020 02:00 to 1:10 24.22 24.36 24.37 24.18 24.21 24.12
7/28/2020 01:00 to 0:10 24.11 24.26 24.18 24.28 24.12 24.17
7/28/2020 00:00 to 23:10 24.08 24.08 24.10 24.17 24.08 24.10
7/27/2020 23:00 to 22:10 24.03 24.20 24.52 24.47 24.48 24.53
7/27/2020 22:00 to 21:10 24.46 24.57 24.45 24.31 24.18 23.96
7/27/2020 21:00 to 20:10 24.40 24.42 24.39 24.36 24.13 24.23
7/27/2020 20:00 to 19:10 24.25 24.83 24.76 24.84 24.97 24.95
7/27/2020 19:00 to 18:10 24.91 24.78 24.90 25.10 25.01 24.90
7/27/2020 18:00 to 17:10 24.88 24.69 24.63 24.59 24.62 24.61
7/27/2020 17:00 to 16:10 24.69 24.53 24.72 24.70 24.71 24.75
7/27/2020 16:00 to 15:10 24.63 24.59 24.54 24.53 24.39 24.28
7/27/2020 15:00 to 14:10 24.19 24.17 23.90 23.64 24.41 24.31
7/27/2020 14:00 to 13:10 24.29 24.29 24.33 24.17 24.29 24.20
7/27/2020 13:00 to 12:10 24.19 24.22 24.16 24.30 24.42 24.16
7/27/2020 12:00 to 11:10 24.19 24.20 24.09 24.18 24.12 24.23
7/27/2020 11:00 to 10:10 24.12 24.13 24.35 24.13 24.15 24.22
7/27/2020 10:00 to 9:10 24.11 23.90 24.32 24.19 24.31 24.26
7/27/2020 09:00 to 8:10 24.25 24.37 24.34 24.44 24.31 24.32
7/27/2020 08:00 to 7:10 24.26 24.44 24.41 24.34 24.53 24.53
7/27/2020 07:00 to 6:10 24.53 24.61 24.54 24.60 24.64 24.76
7/27/2020 06:00 to 5:10 24.73 24.66 24.75 24.70 24.25 24.44
7/27/2020 05:00 to 4:10 24.30 24.31 24.01 24.22 24.22 24.09
7/27/2020 04:00 to 3:10 24.03 24.53 24.52 24.56 24.49 24.51
7/27/2020 03:00 to 2:10 24.57 24.53 24.45 24.45 24.37 24.31
7/27/2020 02:00 to 1:10 24.19 24.01 24.02 24.25 24.08 24.21
7/27/2020 01:00 to 0:10 24.32 24.08 23.85 23.62 24.66 24.71
7/27/2020 00:00 to 23:10 24.60 24.70 24.72 24.65 24.59 24.65
7/26/2020 23:00 to 22:10 24.65 24.69 24.72 24.69 24.87 24.91
7/26/2020 22:00 to 21:10 24.83 24.88 24.75 24.81 24.64 24.74
7/26/2020 21:00 to 20:10 24.69 24.65 24.72 24.55 24.55 24.47
7/26/2020 20:00 to 19:10 24.52 24.15 23.84 23.91 24.76 24.48
7/26/2020 19:00 to 18:10 24.60 24.40 24.44 24.23 24.40 24.59
7/26/2020 18:00 to 17:10 24.71 24.60 24.37 24.46 24.65 24.60
7/26/2020 17:00 to 16:10 24.67 24.67 24.68 24.56 24.66 24.46
7/26/2020 16:00 to 15:10 24.67 24.61 24.47 24.58 24.61 24.63
7/26/2020 15:00 to 14:10 24.50 24.58 24.27 24.38 24.41 24.24
7/26/2020 14:00 to 13:10 24.27 24.24 24.25 24.48 24.43 24.40
7/26/2020 13:00 to 12:10 24.41 24.24 24.44 24.32 24.37 24.37
7/26/2020 12:00 to 11:10 24.32 24.20 24.07 24.31 24.20 24.00
7/26/2020 11:00 to 10:10 23.54 24.17 24.34 24.26 24.27 24.33
7/26/2020 10:00 to 9:10 24.32 24.33 24.19 24.17 24.27 24.33
7/26/2020 09:00 to 8:10 24.15 24.42 24.31 24.43 24.31 24.41
7/26/2020 08:00 to 7:10 24.26 24.52 24.35 24.43 24.35 24.35
7/26/2020 07:00 to 6:10 24.41 24.53 24.29 24.39 24.34 24.37
7/26/2020 06:00 to 5:10 24.45 24.39 24.32 24.47 24.44 24.48
7/26/2020 05:00 to 4:10 24.38 24.42 24.47 24.40 24.46 24.39
7/26/2020 04:00 to 3:10 24.36 24.49 24.44 24.47 24.44 24.47
7/26/2020 03:00 to 2:10 24.40 24.45 24.43 24.46 24.45 24.43
7/26/2020 02:00 to 1:10 24.50 24.41 24.41 24.49 24.45 24.42
7/26/2020 01:00 to 0:10 24.60 24.44 24.50 24.54 24.62 24.50
7/26/2020 00:00 to 23:10 24.56 24.50 24.68 24.67 24.76 24.73
7/25/2020 23:00 to 22:10 24.63 24.66 24.58 24.71 24.58 24.75
7/25/2020 22:00 to 21:10 24.72 24.61 24.59 24.63 24.53 24.63
7/25/2020 21:00 to 20:10 24.66 24.58 24.62 24.61 24.68 24.65
7/25/2020 20:00 to 19:10 24.65 24.62 24.66 24.57 24.57 24.59
7/25/2020 19:00 to 18:10 24.54 24.51 24.55 24.55 24.46 24.45
7/25/2020 18:00 to 17:10 24.51 24.62 24.55 24.53 24.69 24.58
7/25/2020 17:00 to 16:10 24.61 24.53 24.65 24.51 24.60 24.59
7/25/2020 16:00 to 15:10 24.63 24.66 24.60 24.77 24.64 24.65
7/25/2020 15:00 to 14:10 24.58 24.48 24.70 24.46 24.41 24.50
7/25/2020 14:00 to 13:10 24.29 24.27 24.04 24.14 24.18 24.14
7/25/2020 13:00 to 12:10 24.21 24.16 24.26 24.11 24.18 24.17
7/25/2020 12:00 to 11:10 24.31 24.16 24.28 24.06 24.20 24.23
7/25/2020 11:00 to 10:10 24.20 24.20 24.21 24.11 24.26 24.24
7/25/2020 10:00 to 9:10 24.28 24.23 24.32 24.26 24.21 24.19
7/25/2020 09:00 to 8:10 24.31 24.27 24.21 24.24 24.25 24.34
7/25/2020 08:00 to 7:10 24.26 24.21 24.20 24.23 24.29 24.18
7/25/2020 07:00 to 6:10 24.10 24.25 24.26 24.31 24.26 24.36
7/25/2020 06:00 to 5:10 24.21 24.21 24.15 24.23 24.15 24.32
7/25/2020 05:00 to 4:10 24.21 24.30 24.22 24.13 24.30 24.17
7/25/2020 04:00 to 3:10 24.26 24.27 24.17 24.30 24.27 24.20
7/25/2020 03:00 to 2:10 24.30 24.23 24.23 24.14 24.26 24.11
7/25/2020 02:00 to 1:10 24.19 24.46 24.37 24.40 24.27 24.17
7/25/2020 01:00 to 0:10 24.34 24.44 24.57 24.56 24.52 24.51